Time;durP1;ratioP1;P1;durP2;ratioP2;P2;SDS_P1;SDS_P2;PMS_P1;PMS_P2;Temp;Humidity;BMP_temperature;BMP_pressure;BME280_temperature;BME280_humidity;BME280_pressure;Samples;Min_cycle;Max_cycle;Signal;HPM_P1;HPM_P2
2021/08/21 00:02:08;;;;;;;14.20;7.18;;;;;;;;;;5053236;28;20025;-75
2021/08/21 00:04:37;;;;;;;20.95;8.20;;;;;;;;;;5053094;28;20033;-75
2021/08/21 00:07:02;;;;;;;24.23;8.43;;;;;;;;;;5053319;28;20037;-77
2021/08/21 00:09:27;;;;;;;32.88;8.93;;;;;;;;;;5053315;28;20028;-75
2021/08/21 00:11:53;;;;;;;42.85;10.60;;;;;;;;;;5053359;28;20029;-75
2021/08/21 00:14:18;;;;;;;35.53;10.30;;;;;;;;;;5053152;28;20124;-75
2021/08/21 00:16:43;;;;;;;42.55;10.98;;;;;;;;;;5053204;28;20457;-75
2021/08/21 00:19:09;;;;;;;34.08;10.55;;;;;;;;;;5053091;28;20031;-75
2021/08/21 00:21:34;;;;;;;29.65;10.75;;;;;;;;;;5052995;28;20040;-75
2021/08/21 00:23:59;;;;;;;30.95;10.55;;;;;;;;;;5053077;28;20017;-75
2021/08/21 00:26:24;;;;;;;39.72;12.15;;;;;;;;;;5052596;28;20040;-75
2021/08/21 00:28:50;;;;;;;42.85;12.82;;;;;;;;;;5053405;28;20524;-75
2021/08/21 00:31:15;;;;;;;50.35;14.77;;;;;;;;;;5052832;28;20509;-75
2021/08/21 00:33:40;;;;;;;39.72;15.20;;;;;;;;;;5052781;28;20033;-75
2021/08/21 00:36:06;;;;;;;47.05;16.45;;;;;;;;;;5052993;28;20516;-74
2021/08/21 00:38:31;;;;;;;54.97;15.98;;;;;;;;;;5052937;28;20068;-75
2021/08/21 00:40:56;;;;;;;50.63;15.45;;;;;;;;;;5053074;28;20040;-75
2021/08/21 00:43:22;;;;;;;64.43;17.13;;;;;;;;;;5053199;28;20037;-75
2021/08/21 00:45:47;;;;;;;48.10;14.40;;;;;;;;;;5052670;28;20021;-75
2021/08/21 00:48:13;;;;;;;44.95;13.85;;;;;;;;;;5052851;28;20033;-75
2021/08/21 00:50:38;;;;;;;71.40;17.15;;;;;;;;;;5052992;28;20044;-75
2021/08/21 00:53:03;;;;;;;59.22;15.20;;;;;;;;;;5052781;28;20021;-76
2021/08/21 00:55:29;;;;;;;32.55;12.07;;;;;;;;;;5052444;28;20033;-75
2021/08/21 00:57:55;;;;;;;70.97;16.48;;;;;;;;;;5053038;28;20520;-74
2021/08/21 01:00:20;;;;;;;52.97;14.50;;;;;;;;;;5056477;28;20025;-75
2021/08/21 01:02:46;;;;;;;51.90;15.70;;;;;;;;;;5056732;28;20383;-75
2021/08/21 01:05:14;;;;;;;60.08;13.88;;;;;;;;;;5056500;28;20370;-75
2021/08/21 01:07:40;;;;;;;50.03;13.73;;;;;;;;;;5056330;28;20457;-75
2021/08/21 01:10:25;;;;;;;45.10;13.10;;;;;;;;;;5056487;28;20059;-75
2021/08/21 01:12:52;;;;;;;63.88;15.07;;;;;;;;;;5055887;28;20040;-75
2021/08/21 01:15:18;;;;;;;59.15;15.57;;;;;;;;;;5056207;28;20082;-75
2021/08/21 01:17:44;;;;;;;73.97;16.98;;;;;;;;;;5056386;28;20047;-75
2021/08/21 01:20:09;;;;;;;53.45;15.00;;;;;;;;;;5056236;28;20025;-76
2021/08/21 01:22:35;;;;;;;48.53;14.15;;;;;;;;;;5056448;28;20453;-75
2021/08/21 01:25:01;;;;;;;85.65;15.68;;;;;;;;;;5056223;28;20032;-75
2021/08/21 01:27:28;;;;;;;40.03;13.48;;;;;;;;;;5055882;28;20488;-75
2021/08/21 01:29:53;;;;;;;55.35;14.82;;;;;;;;;;5054894;28;20033;-75
2021/08/21 01:32:20;;;;;;;57.83;14.75;;;;;;;;;;5055577;28;20505;-75
2021/08/21 01:34:46;;;;;;;64.47;15.20;;;;;;;;;;5056021;28;20035;-75
2021/08/21 01:37:15;;;;;;;63.45;15.63;;;;;;;;;;5055941;28;20029;-75
2021/08/21 01:39:40;;;;;;;80.88;17.25;;;;;;;;;;5055984;28;20104;-75
2021/08/21 01:42:05;;;;;;;61.40;14.82;;;;;;;;;;5055584;28;20053;-75
2021/08/21 01:44:31;;;;;;;65.25;15.13;;;;;;;;;;5055845;28;20025;-75
2021/08/21 01:46:56;;;;;;;60.22;14.95;;;;;;;;;;5056269;28;20123;-75
2021/08/21 01:49:22;;;;;;;57.50;15.43;;;;;;;;;;5055372;28;20362;-75
2021/08/21 01:51:49;;;;;;;63.25;15.20;;;;;;;;;;5055808;28;20048;-75
2021/08/21 01:54:15;;;;;;;45.15;12.85;;;;;;;;;;5055606;28;20059;-75
2021/08/21 01:56:50;;;;;;;47.45;13.80;;;;;;;;;;5055669;28;20354;-75
2021/08/21 01:59:34;;;;;;;52.15;14.35;;;;;;;;;;5055326;28;20079;-75
2021/08/21 02:02:00;;;;;;;66.03;16.60;;;;;;;;;;5055253;28;20074;-75
2021/08/21 02:04:25;;;;;;;63.42;16.27;;;;;;;;;;5055160;28;20420;-75
2021/08/21 02:06:51;;;;;;;77.60;17.80;;;;;;;;;;5055321;28;20029;-75
2021/08/21 02:09:17;;;;;;;50.85;15.13;;;;;;;;;;5037171;28;20063;-74
2021/08/21 02:11:43;;;;;;;111.50;18.05;;;;;;;;;;5054539;28;20082;-75
2021/08/21 02:14:09;;;;;;;81.25;16.17;;;;;;;;;;5055263;28;20040;-75
2021/08/21 02:16:34;;;;;;;71.28;15.43;;;;;;;;;;5055265;28;20028;-74
2021/08/21 02:18:59;;;;;;;80.53;17.60;;;;;;;;;;5055175;28;20029;-75
2021/08/21 02:21:25;;;;;;;72.97;16.33;;;;;;;;;;5055419;28;20120;-75
2021/08/21 02:23:51;;;;;;;72.03;16.45;;;;;;;;;;5055181;28;20053;-75
2021/08/21 02:26:17;;;;;;;78.55;16.40;;;;;;;;;;5054683;28;20417;-75
2021/08/21 02:28:42;;;;;;;76.80;16.77;;;;;;;;;;5055157;28;20033;-75
2021/08/21 02:31:07;;;;;;;50.10;13.82;;;;;;;;;;5054674;28;20477;-75
2021/08/21 02:33:33;;;;;;;64.28;15.00;;;;;;;;;;5054909;28;20381;-75
2021/08/21 02:35:59;;;;;;;92.28;18.15;;;;;;;;;;5054949;28;20041;-75
2021/08/21 02:38:24;;;;;;;62.60;15.27;;;;;;;;;;5054804;28;20028;-75
2021/08/21 02:40:50;;;;;;;53.50;14.55;;;;;;;;;;5054877;28;20171;-75
2021/08/21 02:43:15;;;;;;;52.50;12.98;;;;;;;;;;5054634;28;20465;-75
2021/08/21 02:45:40;;;;;;;39.03;12.23;;;;;;;;;;5054722;28;20084;-75
2021/08/21 02:48:06;;;;;;;69.80;16.98;;;;;;;;;;5054728;28;20025;-75
2021/08/21 02:50:31;;;;;;;69.20;15.00;;;;;;;;;;5054567;28;20473;-75
2021/08/21 02:52:56;;;;;;;80.00;17.48;;;;;;;;;;5054437;28;20032;-75
2021/08/21 02:55:22;;;;;;;82.55;17.10;;;;;;;;;;5054370;28;20037;-75
2021/08/21 02:57:47;;;;;;;73.10;16.23;;;;;;;;;;5054232;28;20116;-75
2021/08/21 03:00:13;;;;;;;59.03;15.25;;;;;;;;;;5054408;28;20025;-75
2021/08/21 03:02:40;;;;;;;75.10;16.85;;;;;;;;;;5054498;28;20035;-75
2021/08/21 03:05:05;;;;;;;46.88;13.45;;;;;;;;;;5054234;28;20036;-76
2021/08/21 03:07:30;;;;;;;69.22;17.60;;;;;;;;;;5054281;28;20414;-75
2021/08/21 03:09:56;;;;;;;89.28;18.30;;;;;;;;;;5054276;28;20417;-75
2021/08/21 03:12:21;;;;;;;64.22;16.63;;;;;;;;;;5054171;28;20041;-75
2021/08/21 03:14:46;;;;;;;68.25;15.95;;;;;;;;;;5054106;28;20021;-75
2021/08/21 03:17:11;;;;;;;81.93;17.65;;;;;;;;;;5054038;28;20504;-76
2021/08/21 03:19:37;;;;;;;79.53;16.48;;;;;;;;;;5054036;28;20033;-75
2021/08/21 03:22:02;;;;;;;76.65;16.88;;;;;;;;;;5035801;28;20029;-75
2021/08/21 03:24:28;;;;;;;49.50;13.77;;;;;;;;;;5053644;28;20473;-76
2021/08/21 03:26:53;;;;;;;68.18;15.70;;;;;;;;;;5053971;28;20159;-75
2021/08/21 03:29:18;;;;;;;63.28;17.00;;;;;;;;;;5053773;28;20017;-75
2021/08/21 03:31:43;;;;;;;55.75;14.93;;;;;;;;;;5053847;28;20099;-75
2021/08/21 03:34:09;;;;;;;35.75;12.88;;;;;;;;;;5053804;28;20029;-75
2021/08/21 03:36:34;;;;;;;53.38;14.32;;;;;;;;;;5053775;28;20055;-75
2021/08/21 03:38:59;;;;;;;47.03;14.65;;;;;;;;;;5053811;28;20102;-75
2021/08/21 03:41:24;;;;;;;67.70;17.98;;;;;;;;;;5053317;28;20116;-75
2021/08/21 03:43:50;;;;;;;61.80;16.13;;;;;;;;;;5053730;28;20017;-75
2021/08/21 03:46:15;;;;;;;67.68;18.25;;;;;;;;;;5053555;28;20461;-75
2021/08/21 03:48:40;;;;;;;83.72;18.25;;;;;;;;;;5053663;28;20116;-75
2021/08/21 03:51:06;;;;;;;98.13;19.67;;;;;;;;;;5053296;28;20428;-75
2021/08/21 03:53:31;;;;;;;77.60;19.48;;;;;;;;;;5053488;28;20025;-75
2021/08/21 03:55:56;;;;;;;68.95;18.08;;;;;;;;;;5053257;28;20033;-75
2021/08/21 03:58:21;;;;;;;70.85;19.15;;;;;;;;;;5053335;28;20033;-75
2021/08/21 04:00:47;;;;;;;52.85;17.35;;;;;;;;;;5053503;28;20061;-75
2021/08/21 04:03:12;;;;;;;53.25;15.88;;;;;;;;;;5053307;28;20037;-75
2021/08/21 04:05:38;;;;;;;66.93;17.98;;;;;;;;;;5053348;28;20080;-78
2021/08/21 04:08:03;;;;;;;59.72;17.45;;;;;;;;;;5053357;28;20029;-75
2021/08/21 04:10:28;;;;;;;76.47;18.80;;;;;;;;;;5053257;28;20110;-76
2021/08/21 04:12:54;;;;;;;80.43;19.05;;;;;;;;;;5053049;28;20043;-74
2021/08/21 04:15:19;;;;;;;59.10;17.98;;;;;;;;;;5053118;28;20044;-75
2021/08/21 04:17:44;;;;;;;48.95;15.57;;;;;;;;;;5053352;28;20079;-75
2021/08/21 04:20:10;;;;;;;64.35;18.75;;;;;;;;;;5053525;28;20025;-76
2021/08/21 04:22:35;;;;;;;49.35;15.10;;;;;;;;;;5053309;28;20033;-76
2021/08/21 04:25:00;;;;;;;58.95;17.63;;;;;;;;;;5053093;28;20021;-75
2021/08/21 04:27:26;;;;;;;50.35;16.33;;;;;;;;;;5053157;28;20100;-75
2021/08/21 04:29:51;;;;;;;46.13;17.17;;;;;;;;;;5053103;28;20110;-75
2021/08/21 04:32:16;;;;;;;57.17;16.77;;;;;;;;;;5052654;28;20052;-75
2021/08/21 04:34:42;;;;;;;47.90;16.52;;;;;;;;;;5055870;28;20099;-76
2021/08/21 04:37:07;;;;;;;51.05;16.00;;;;;;;;;;5057162;28;20583;-75
2021/08/21 04:39:32;;;;;;;73.93;17.98;;;;;;;;;;5057081;28;20029;-75
2021/08/21 04:41:58;;;;;;;51.30;15.20;;;;;;;;;;5056381;28;20463;-75
2021/08/21 04:44:24;;;;;;;44.90;14.45;;;;;;;;;;5057236;28;20025;-75
2021/08/21 04:46:49;;;;;;;41.72;12.93;;;;;;;;;;5057116;28;20056;-75
2021/08/21 04:49:14;;;;;;;35.85;11.77;;;;;;;;;;5056559;28;20482;-75
2021/08/21 04:51:40;;;;;;;39.78;15.95;;;;;;;;;;5056605;28;20029;-75
2021/08/21 04:54:05;;;;;;;49.40;16.20;;;;;;;;;;5056687;28;20032;-75
2021/08/21 04:56:30;;;;;;;49.03;15.95;;;;;;;;;;5056669;28;20115;-75
2021/08/21 04:58:55;;;;;;;43.53;13.90;;;;;;;;;;5056501;28;20040;-75
2021/08/21 05:01:21;;;;;;;48.80;15.00;;;;;;;;;;5056595;28;20032;-75
2021/08/21 05:03:46;;;;;;;43.28;14.02;;;;;;;;;;5056593;28;20021;-75
2021/08/21 05:06:12;;;;;;;52.17;15.38;;;;;;;;;;5056478;28;20033;-75
2021/08/21 05:08:37;;;;;;;52.42;15.20;;;;;;;;;;5056366;28;20040;-75
2021/08/21 05:11:02;;;;;;;66.72;16.30;;;;;;;;;;5056522;28;20020;-75
2021/08/21 05:13:28;;;;;;;54.33;14.90;;;;;;;;;;5056440;28;20469;-75
2021/08/21 05:15:53;;;;;;;40.50;13.50;;;;;;;;;;5056430;28;20120;-75
2021/08/21 05:18:26;;;;;;;44.63;13.77;;;;;;;;;;5056296;28;20438;-75
2021/08/21 05:20:52;;;;;;;49.58;14.48;;;;;;;;;;5056088;28;20539;-75
2021/08/21 05:23:18;;;;;;;47.50;14.45;;;;;;;;;;5056212;28;20064;-75
2021/08/21 05:25:47;;;;;;;44.00;13.73;;;;;;;;;;5056291;28;20060;-75
2021/08/21 05:28:14;;;;;;;54.28;15.40;;;;;;;;;;5056181;28;20059;-75
2021/08/21 05:30:40;;;;;;;65.22;17.20;;;;;;;;;;5055891;28;20095;-75
2021/08/21 05:33:12;;;;;;;57.35;16.38;;;;;;;;;;5056167;28;20432;-75
2021/08/21 05:35:38;;;;;;;60.60;17.48;;;;;;;;;;5055602;28;20400;-75
2021/08/21 05:38:04;;;;;;;54.95;16.38;;;;;;;;;;5056041;28;20025;-75
2021/08/21 05:40:29;;;;;;;62.97;16.80;;;;;;;;;;5056036;28;20427;-74
2021/08/21 05:42:55;;;;;;;57.03;15.85;;;;;;;;;;5056005;28;20028;-75
2021/08/21 05:45:20;;;;;;;48.67;16.20;;;;;;;;;;5055549;28;20029;-75
2021/08/21 05:47:45;;;;;;;51.90;15.35;;;;;;;;;;5056183;28;20048;-75
2021/08/21 05:50:11;;;;;;;59.30;16.48;;;;;;;;;;5055503;28;20108;-75
2021/08/21 05:52:36;;;;;;;54.08;15.20;;;;;;;;;;5056066;28;20036;-74
2021/08/21 05:55:02;;;;;;;50.13;15.63;;;;;;;;;;5055264;28;20025;-76
2021/08/21 05:57:27;;;;;;;60.00;17.60;;;;;;;;;;5055655;28;20021;-75
2021/08/21 05:59:52;;;;;;;51.35;18.90;;;;;;;;;;5055736;28;20392;-75
2021/08/21 06:02:17;;;;;;;43.00;17.23;;;;;;;;;;5055759;28;20033;-75
2021/08/21 06:04:43;;;;;;;49.47;18.48;;;;;;;;;;5055553;28;20082;-75
2021/08/21 06:07:08;;;;;;;56.92;17.38;;;;;;;;;;5055454;28;20036;-75
2021/08/21 06:09:33;;;;;;;70.60;20.40;;;;;;;;;;5055397;28;20381;-75
2021/08/21 06:11:58;;;;;;;71.38;19.10;;;;;;;;;;5055146;28;20025;-75
2021/08/21 06:14:24;;;;;;;48.08;16.65;;;;;;;;;;5055504;28;20036;-75
2021/08/21 06:16:49;;;;;;;60.70;17.80;;;;;;;;;;5054908;28;20051;-75
2021/08/21 06:19:14;;;;;;;49.83;16.33;;;;;;;;;;5055212;28;20025;-76
2021/08/21 06:21:42;;;;;;;39.88;14.45;;;;;;;;;;5055161;28;20033;-75
2021/08/21 06:24:07;;;;;;;39.70;14.02;;;;;;;;;;5054806;28;20049;-75
2021/08/21 06:26:32;;;;;;;40.60;14.70;;;;;;;;;;5055155;28;20060;-75
2021/08/21 06:28:58;;;;;;;46.33;14.50;;;;;;;;;;5055129;28;20359;-75
2021/08/21 06:31:23;;;;;;;43.70;15.45;;;;;;;;;;5055002;28;20091;-75
2021/08/21 06:33:48;;;;;;;43.58;13.88;;;;;;;;;;5055030;28;20355;-75
2021/08/21 06:36:13;;;;;;;38.53;14.07;;;;;;;;;;5036981;28;20072;-76
2021/08/21 06:38:39;;;;;;;32.88;12.60;;;;;;;;;;5054546;28;20036;-74
2021/08/21 06:41:04;;;;;;;38.53;16.48;;;;;;;;;;5054914;28;20021;-75
2021/08/21 06:43:29;;;;;;;41.00;16.17;;;;;;;;;;5054635;28;20499;-75
2021/08/21 06:45:55;;;;;;;38.25;12.48;;;;;;;;;;5054762;28;20412;-75
2021/08/21 06:48:20;;;;;;;43.00;12.85;;;;;;;;;;5054654;28;20024;-75
2021/08/21 06:50:45;;;;;;;35.22;12.75;;;;;;;;;;5054598;28;20523;-75
2021/08/21 06:53:11;;;;;;;42.40;13.15;;;;;;;;;;5054467;28;20029;-75
2021/08/21 06:55:36;;;;;;;33.45;12.40;;;;;;;;;;5053790;28;20065;-75
2021/08/21 06:58:01;;;;;;;41.10;12.95;;;;;;;;;;5053918;28;20495;-76
2021/08/21 07:00:27;;;;;;;37.42;12.40;;;;;;;;;;5054384;28;20051;-75
2021/08/21 07:02:52;;;;;;;43.13;13.15;;;;;;;;;;5054508;28;20072;-75
2021/08/21 07:05:17;;;;;;;36.97;11.48;;;;;;;;;;5054199;28;20095;-76
2021/08/21 07:07:43;;;;;;;33.78;12.18;;;;;;;;;;5054146;28;20078;-75
2021/08/21 07:10:08;;;;;;;37.35;11.52;;;;;;;;;;5054273;28;20055;-75
2021/08/21 07:12:34;;;;;;;33.00;12.13;;;;;;;;;;5054050;28;20025;-75
2021/08/21 07:14:59;;;;;;;31.40;12.07;;;;;;;;;;5054162;28;20033;-75
2021/08/21 07:17:24;;;;;;;33.95;11.35;;;;;;;;;;5054211;28;20032;-75
2021/08/21 07:19:50;;;;;;;28.60;12.35;;;;;;;;;;5054213;28;20087;-75
2021/08/21 07:22:15;;;;;;;27.30;13.68;;;;;;;;;;5054134;28;20037;-76
2021/08/21 07:24:40;;;;;;;26.08;11.05;;;;;;;;;;5054004;28;20020;-75
2021/08/21 07:27:06;;;;;;;20.33;9.38;;;;;;;;;;5053572;28;20025;-75
2021/08/21 07:29:31;;;;;;;23.73;9.25;;;;;;;;;;5054243;28;20033;-75
2021/08/21 07:31:56;;;;;;;20.48;8.23;;;;;;;;;;5053963;28;20041;-75
2021/08/21 07:34:22;;;;;;;19.15;8.50;;;;;;;;;;5053761;28;20029;-75
2021/08/21 07:36:47;;;;;;;23.88;9.05;;;;;;;;;;5053589;28;20059;-75
2021/08/21 07:39:12;;;;;;;25.70;9.05;;;;;;;;;;5053697;28;20021;-74
2021/08/21 07:41:38;;;;;;;27.00;9.30;;;;;;;;;;5053615;28;20040;-75
2021/08/21 07:44:03;;;;;;;22.42;8.40;;;;;;;;;;5053771;28;20218;-75
2021/08/21 07:46:29;;;;;;;22.42;9.68;;;;;;;;;;5053329;28;20028;-75
2021/08/21 07:48:54;;;;;;;27.20;9.93;;;;;;;;;;5053760;28;20052;-75
2021/08/21 07:51:19;;;;;;;22.17;8.68;;;;;;;;;;5053798;28;20025;-76
2021/08/21 07:53:44;;;;;;;13.80;7.05;;;;;;;;;;5053842;28;20075;-76
2021/08/21 07:56:10;;;;;;;21.95;8.70;;;;;;;;;;5053205;28;20548;-75
2021/08/21 07:58:35;;;;;;;11.65;6.25;;;;;;;;;;5053796;28;20163;-75
2021/08/21 08:01:00;;;;;;;12.25;6.28;;;;;;;;;;5053531;28;20385;-75
2021/08/21 08:03:26;;;;;;;11.52;6.95;;;;;;;;;;5053347;28;20032;-75
2021/08/21 08:05:52;;;;;;;6.93;4.65;;;;;;;;;;5053161;28;20095;-75
2021/08/21 08:08:17;;;;;;;10.80;5.28;;;;;;;;;;5053212;28;20017;-76
2021/08/21 08:10:42;;;;;;;9.77;4.53;;;;;;;;;;5053080;28;20053;-75
2021/08/21 08:13:07;;;;;;;10.15;5.25;;;;;;;;;;5035077;28;20025;-75
2021/08/21 08:15:33;;;;;;;5.95;4.03;;;;;;;;;;5035344;28;20036;-75
2021/08/21 08:17:58;;;;;;;7.90;4.53;;;;;;;;;;5053150;28;20125;-75
2021/08/21 08:20:25;;;;;;;8.98;4.53;;;;;;;;;;5053118;28;20031;-75
2021/08/21 08:22:51;;;;;;;5.50;3.75;;;;;;;;;;5053248;28;20445;-75
2021/08/21 08:25:16;;;;;;;7.95;4.57;;;;;;;;;;5053180;28;20036;-75
2021/08/21 08:27:41;;;;;;;5.88;3.95;;;;;;;;;;5053086;28;20025;-75
2021/08/21 08:30:07;;;;;;;7.35;4.53;;;;;;;;;;5053183;28;20025;-75
2021/08/21 08:32:32;;;;;;;7.32;4.30;;;;;;;;;;5052640;28;20049;-75
2021/08/21 08:34:58;;;;;;;7.82;4.65;;;;;;;;;;5053093;28;20120;-75
2021/08/21 08:37:23;;;;;;;6.70;4.10;;;;;;;;;;5052998;28;20017;-75
2021/08/21 08:39:48;;;;;;;7.78;4.70;;;;;;;;;;5053283;28;20032;-75
2021/08/21 08:42:15;;;;;;;7.18;4.40;;;;;;;;;;5053142;28;20443;-75
2021/08/21 08:44:46;;;;;;;7.30;4.63;;;;;;;;;;5053029;28;20392;-75
2021/08/21 08:47:12;;;;;;;7.45;4.13;;;;;;;;;;5053044;28;20069;-75
2021/08/21 08:49:37;;;;;;;8.55;4.50;;;;;;;;;;5053052;28;20104;-75
2021/08/21 08:52:05;;;;;;;7.65;4.70;;;;;;;;;;5052936;28;20493;-76
2021/08/21 08:54:30;;;;;;;11.82;5.13;;;;;;;;;;5032844;28;20423;-75
2021/08/21 08:56:55;;;;;;;13.77;6.03;;;;;;;;;;5052280;28;20041;-75
2021/08/21 08:59:21;;;;;;;11.25;5.72;;;;;;;;;;5052273;28;20017;-76
2021/08/21 09:01:46;;;;;;;11.05;5.25;;;;;;;;;;5051997;28;20485;-75
2021/08/21 09:04:15;;;;;;;8.35;5.45;;;;;;;;;;5052490;28;20068;-75
2021/08/21 09:06:41;;;;;;;14.05;5.57;;;;;;;;;;5052237;28;20025;-79
2021/08/21 09:09:13;;;;;;;9.73;5.18;;;;;;;;;;5052568;28;20432;-75
2021/08/21 09:11:45;;;;;;;8.63;4.68;;;;;;;;;;5052514;28;20025;-75
2021/08/21 09:14:17;;;;;;;9.52;4.57;;;;;;;;;;5052589;28;20048;-75
2021/08/21 09:16:42;;;;;;;8.65;4.55;;;;;;;;;;5052259;28;20047;-76
2021/08/21 09:19:07;;;;;;;7.82;5.25;;;;;;;;;;5052930;28;20088;-76
2021/08/21 09:21:33;;;;;;;7.90;5.15;;;;;;;;;;5056199;28;20021;-76
2021/08/21 09:23:58;;;;;;;8.13;4.65;;;;;;;;;;5056116;28;20040;-76
2021/08/21 09:26:30;;;;;;;11.88;5.25;;;;;;;;;;5055919;28;20013;-76
2021/08/21 09:28:58;;;;;;;11.27;5.60;;;;;;;;;;5056194;28;20094;-76
2021/08/21 09:31:24;;;;;;;9.55;5.15;;;;;;;;;;5047260;28;20378;-77
2021/08/21 09:33:54;;;;;;;11.60;5.95;;;;;;;;;;5055127;28;20108;-76
2021/08/21 09:36:27;;;;;;;11.35;6.45;;;;;;;;;;5055615;28;20461;-77
2021/08/21 09:38:53;;;;;;;11.23;6.72;;;;;;;;;;5040184;28;20045;-76
2021/08/21 09:41:18;;;;;;;12.65;6.45;;;;;;;;;;5055757;28;20040;-77
2021/08/21 09:43:44;;;;;;;13.55;6.63;;;;;;;;;;5055674;28;20025;-76
2021/08/21 09:46:12;;;;;;;13.45;5.68;;;;;;;;;;5055942;28;20051;-76
2021/08/21 09:48:56;;;;;;;12.07;5.88;;;;;;;;;;5055853;28;20116;-76
2021/08/21 09:51:29;;;;;;;12.93;6.28;;;;;;;;;;5055733;28;20037;-76
2021/08/21 09:54:04;;;;;;;11.52;6.53;;;;;;;;;;5055265;28;20472;-76
2021/08/21 09:56:33;;;;;;;13.50;6.82;;;;;;;;;;5055381;28;20430;-76
2021/08/21 09:58:59;;;;;;;13.88;6.72;;;;;;;;;;5055538;28;20033;-76
2021/08/21 10:01:25;;;;;;;11.80;7.75;;;;;;;;;;5055014;28;20441;-76
2021/08/21 10:03:51;;;;;;;14.85;8.18;;;;;;;;;;5053634;28;20025;-75
2021/08/21 10:06:16;;;;;;;12.88;7.72;;;;;;;;;;5053254;28;20068;-76
2021/08/21 10:08:42;;;;;;;20.83;8.90;;;;;;;;;;5053491;28;20025;-76
2021/08/21 10:11:08;;;;;;;20.30;9.10;;;;;;;;;;5053394;28;20462;-76
2021/08/21 10:13:34;;;;;;;20.63;9.57;;;;;;;;;;5053404;28;20048;-76
2021/08/21 10:16:03;;;;;;;25.33;9.63;;;;;;;;;;5044984;28;20605;-76
2021/08/21 10:18:29;;;;;;;17.50;9.15;;;;;;;;;;5051171;28;20025;-75
2021/08/21 10:20:54;;;;;;;18.48;9.63;;;;;;;;;;5051752;28;20040;-75
2021/08/21 10:23:26;;;;;;;23.60;9.27;;;;;;;;;;5052079;28;20025;-75
2021/08/21 10:26:00;;;;;;;23.08;9.43;;;;;;;;;;5051866;28;20116;-75
2021/08/21 10:28:29;;;;;;;30.93;10.47;;;;;;;;;;5051078;28;20389;-76
2021/08/21 10:30:54;;;;;;;23.77;10.18;;;;;;;;;;5050852;28;20102;-75
2021/08/21 10:33:20;;;;;;;30.90;13.48;;;;;;;;;;5051067;28;20056;-75
2021/08/21 10:35:56;;;;;;;23.55;12.02;;;;;;;;;;5050867;28;20040;-75
2021/08/21 10:38:31;;;;;;;19.42;9.65;;;;;;;;;;5051013;28;20036;-76
2021/08/21 10:41:16;;;;;;;21.30;9.55;;;;;;;;;;5051664;28;20094;-76
2021/08/21 10:43:42;;;;;;;24.58;9.27;;;;;;;;;;5034218;28;20123;-75
2021/08/21 10:46:07;;;;;;;17.02;8.15;;;;;;;;;;5050770;28;20064;-75
2021/08/21 10:48:36;;;;;;;21.60;8.57;;;;;;;;;;5033957;28;20028;-75
2021/08/21 10:51:04;;;;;;;27.30;10.55;;;;;;;;;;5051499;28;20025;-75
2021/08/21 10:53:30;;;;;;;17.38;8.57;;;;;;;;;;5050664;28;20055;-75
2021/08/21 10:55:56;;;;;;;19.23;9.65;;;;;;;;;;5051129;28;20055;-75
2021/08/21 10:58:23;;;;;;;20.15;8.50;;;;;;;;;;5050778;28;20036;-75
2021/08/21 11:00:51;;;;;;;16.80;7.50;;;;;;;;;;5050922;28;20037;-75
2021/08/21 11:03:18;;;;;;;20.70;8.77;;;;;;;;;;5050760;28;20365;-75
2021/08/21 11:06:18;;;;;;;20.25;8.25;;;;;;;;;;5050905;28;20033;-76
2021/08/21 11:08:44;;;;;;;13.23;7.47;;;;;;;;;;4934658;29;20276;-78
2021/08/21 11:11:15;;;;;;;16.42;7.10;;;;;;;;;;5029479;28;20500;-75
2021/08/21 11:13:46;;;;;;;16.00;7.50;;;;;;;;;;5050751;28;20075;-76
2021/08/21 11:16:11;;;;;;;22.80;8.25;;;;;;;;;;5050289;28;20052;-75
2021/08/21 11:18:43;;;;;;;15.23;7.53;;;;;;;;;;5050235;28;20029;-75
2021/08/21 11:21:27;;;;;;;15.80;7.85;;;;;;;;;;5050304;28;20039;-75
2021/08/21 11:23:52;;;;;;;18.27;7.90;;;;;;;;;;5050216;28;20068;-76
2021/08/21 11:26:22;;;;;;;19.15;8.23;;;;;;;;;;5050968;28;20071;-75
2021/08/21 11:29:04;;;;;;;17.05;7.43;;;;;;;;;;5050698;28;20027;-75
2021/08/21 11:31:49;;;;;;;12.32;7.63;;;;;;;;;;5049905;28;20389;-74
2021/08/21 11:34:14;;;;;;;10.23;5.32;;;;;;;;;;5050208;28;20040;-75
2021/08/21 11:36:40;;;;;;;16.90;7.45;;;;;;;;;;5049762;28;20044;-75
2021/08/21 11:39:08;;;;;;;15.52;8.13;;;;;;;;;;5049908;28;20067;-75
2021/08/21 11:41:34;;;;;;;15.27;9.20;;;;;;;;;;5050085;28;20075;-75
2021/08/21 11:44:04;;;;;;;20.60;11.77;;;;;;;;;;5050622;28;20428;-74
2021/08/21 11:46:29;;;;;;;14.93;8.07;;;;;;;;;;5050489;28;20113;-74
2021/08/21 11:49:04;;;;;;;12.05;7.70;;;;;;;;;;5049893;28;20251;-75
2021/08/21 11:51:30;;;;;;;7.57;4.85;;;;;;;;;;5047831;28;20036;-75
2021/08/21 11:54:03;;;;;;;11.48;6.07;;;;;;;;;;5048776;28;20244;-76
2021/08/21 11:56:28;;;;;;;12.38;6.22;;;;;;;;;;5049275;28;20464;-74
2021/08/21 11:58:54;;;;;;;8.60;5.68;;;;;;;;;;5049898;28;20056;-74
2021/08/21 12:01:22;;;;;;;8.07;5.13;;;;;;;;;;5049386;28;20033;-74
2021/08/21 12:06:28;;;;;;;11.60;4.70;;;;;;;;;;5047178;28;20044;-77
2021/08/21 12:09:29;;;;;;;9.57;4.70;;;;;;;;;;5048861;28;20033;-75
2021/08/21 12:11:54;;;;;;;8.43;4.85;;;;;;;;;;4967803;28;20030;-75
2021/08/21 12:14:21;;;;;;;14.00;5.90;;;;;;;;;;5028198;28;20044;-75
2021/08/21 12:16:47;;;;;;;7.85;4.65;;;;;;;;;;5049363;28;20035;-75
2021/08/21 12:19:12;;;;;;;9.23;5.03;;;;;;;;;;5048519;28;20025;-76
2021/08/21 12:21:39;;;;;;;8.60;4.95;;;;;;;;;;5046387;28;20438;-75
2021/08/21 12:24:08;;;;;;;10.10;5.38;;;;;;;;;;5048773;28;20025;-78
2021/08/21 12:26:41;;;;;;;11.18;5.55;;;;;;;;;;5045746;28;20044;-76
2021/08/21 12:29:18;;;;;;;10.05;5.38;;;;;;;;;;5047979;28;20037;-75
2021/08/21 12:31:44;;;;;;;11.32;6.13;;;;;;;;;;5046679;28;20052;-75
2021/08/21 12:34:15;;;;;;;9.02;4.95;;;;;;;;;;5048839;28;20032;-75
2021/08/21 12:36:41;;;;;;;8.05;4.85;;;;;;;;;;5048214;28;20524;-75
2021/08/21 12:39:10;;;;;;;7.55;4.82;;;;;;;;;;5029295;28;20033;-75
2021/08/21 12:41:55;;;;;;;7.95;4.90;;;;;;;;;;5029266;28;20029;-75
2021/08/21 12:44:22;;;;;;;8.98;5.47;;;;;;;;;;5030451;28;20037;-75
2021/08/21 12:47:01;;;;;;;7.28;4.28;;;;;;;;;;5046893;28;20095;-75
2021/08/21 12:49:30;;;;;;;7.70;4.90;;;;;;;;;;5044312;28;20036;-76
2021/08/21 12:51:57;;;;;;;7.53;4.28;;;;;;;;;;5047717;28;20432;-76
2021/08/21 12:54:26;;;;;;;7.07;3.85;;;;;;;;;;5048333;28;20031;-75
2021/08/21 12:57:03;;;;;;;6.60;3.70;;;;;;;;;;5052671;28;20099;-75
2021/08/21 12:59:29;;;;;;;4.45;3.13;;;;;;;;;;5052759;28;20032;-75
2021/08/21 13:02:01;;;;;;;6.88;3.30;;;;;;;;;;5052850;28;20029;-75
2021/08/21 13:04:26;;;;;;;4.68;3.35;;;;;;;;;;5053078;28;20091;-76
2021/08/21 13:06:58;;;;;;;5.35;3.10;;;;;;;;;;5052611;28;20052;-75
2021/08/21 13:09:23;;;;;;;5.72;3.08;;;;;;;;;;5043560;28;20052;-78
2021/08/21 13:11:49;;;;;;;5.38;2.80;;;;;;;;;;5052545;28;20433;-79
2021/08/21 13:14:14;;;;;;;5.78;3.40;;;;;;;;;;5053294;28;20028;-79
2021/08/21 13:16:43;;;;;;;5.32;3.42;;;;;;;;;;5052599;28;20976;-78
2021/08/21 13:19:08;;;;;;;6.28;3.05;;;;;;;;;;5052526;28;20040;-78
2021/08/21 13:21:33;;;;;;;5.38;3.38;;;;;;;;;;5052498;28;20017;-76
2021/08/21 13:23:59;;;;;;;5.82;2.85;;;;;;;;;;5052177;28;20102;-76
2021/08/21 13:26:24;;;;;;;4.63;3.47;;;;;;;;;;5053175;28;20116;-78
2021/08/21 13:28:51;;;;;;;6.25;3.65;;;;;;;;;;5052209;28;20021;-76
2021/08/21 13:31:16;;;;;;;5.07;3.70;;;;;;;;;;5045392;28;20602;-79
2021/08/21 13:33:42;;;;;;;6.68;4.75;;;;;;;;;;5047519;28;20029;-76
2021/08/21 13:36:07;;;;;;;6.30;4.28;;;;;;;;;;5051243;28;20083;-76
2021/08/21 13:38:32;;;;;;;5.78;4.13;;;;;;;;;;5045644;28;20025;-76
2021/08/21 13:40:58;;;;;;;7.38;4.47;;;;;;;;;;5050362;28;20488;-77
2021/08/21 13:43:23;;;;;;;8.00;4.55;;;;;;;;;;5050330;28;20017;-77
2021/08/21 13:45:48;;;;;;;6.00;4.40;;;;;;;;;;5051495;28;20064;-77
2021/08/21 13:48:14;;;;;;;8.23;4.57;;;;;;;;;;5051310;28;20029;-77
2021/08/21 13:50:40;;;;;;;9.55;4.43;;;;;;;;;;5051013;28;20100;-76
2021/08/21 13:53:05;;;;;;;8.88;5.10;;;;;;;;;;5032922;28;20132;-76
2021/08/21 13:55:30;;;;;;;8.18;5.05;;;;;;;;;;5049308;28;20574;-77
2021/08/21 13:57:55;;;;;;;5.93;4.50;;;;;;;;;;5050152;28;20048;-77
2021/08/21 14:00:21;;;;;;;6.93;5.13;;;;;;;;;;5050048;28;20155;-76
2021/08/21 14:02:46;;;;;;;8.43;5.50;;;;;;;;;;5050938;28;20029;-77
2021/08/21 14:05:12;;;;;;;8.73;5.70;;;;;;;;;;5052094;28;20025;-76
2021/08/21 14:07:38;;;;;;;5.78;4.63;;;;;;;;;;5051868;28;20460;-76
2021/08/21 14:10:03;;;;;;;7.28;4.90;;;;;;;;;;5051889;28;20398;-76
2021/08/21 14:12:28;;;;;;;7.68;5.00;;;;;;;;;;5052028;28;20107;-76
2021/08/21 14:14:54;;;;;;;10.13;5.65;;;;;;;;;;5052076;28;20025;-76
2021/08/21 14:17:20;;;;;;;7.38;5.65;;;;;;;;;;5052519;28;20107;-76
2021/08/21 14:19:45;;;;;;;8.18;5.65;;;;;;;;;;5051487;28;20021;-77
2021/08/21 14:22:10;;;;;;;6.70;5.05;;;;;;;;;;5051665;28;20025;-77
2021/08/21 14:24:36;;;;;;;6.55;4.95;;;;;;;;;;5033692;28;20044;-77
2021/08/21 14:27:01;;;;;;;6.25;4.78;;;;;;;;;;5051664;28;20473;-77